Time;durP1;ratioP1;P1;durP2;ratioP2;P2;SDS_P1;SDS_P2;PMS_P1;PMS_P2;Temp;Humidity;BMP_temperature;BMP_pressure;BME280_temperature;BME280_humidity;BME280_pressure;Samples;Min_cycle;Max_cycle;Signal;HPM_P1;HPM_P2
2023/10/18 00:00:34;;;;;;;13.07;8.47;;;8.10;89.60;;;;;;4975045;28;20456;-79
2023/10/18 00:03:03;;;;;;;16.93;9.20;;;8.10;89.80;;;;;;4957579;28;20038;-79
2023/10/18 00:05:31;;;;;;;15.80;9.13;;;8.10;89.80;;;;;;4975723;28;20479;-79
2023/10/18 00:07:57;;;;;;;16.30;9.57;;;8.10;89.90;;;;;;4957860;28;20039;-78
2023/10/18 00:10:23;;;;;;;14.47;9.13;;;8.00;90.00;;;;;;4974923;28;20027;-79
2023/10/18 00:12:52;;;;;;;15.33;8.83;;;8.00;90.00;;;;;;4957325;28;20038;-79
2023/10/18 00:15:18;;;;;;;15.10;10.53;;;8.00;90.00;;;;;;4975177;28;20046;-79
2023/10/18 00:17:44;;;;;;;14.77;9.13;;;8.00;90.10;;;;;;4957591;28;20034;-79
2023/10/18 00:20:13;;;;;;;14.60;9.67;;;8.00;90.20;;;;;;4974926;28;20109;-79
2023/10/18 00:22:43;;;;;;;14.07;9.00;;;8.00;90.30;;;;;;4974514;28;20371;-79
2023/10/18 00:25:10;;;;;;;14.63;10.17;;;8.00;90.30;;;;;;4957587;28;20129;-78
2023/10/18 00:27:41;;;;;;;15.67;9.07;;;8.00;90.30;;;;;;4957371;28;20030;-78
2023/10/18 00:30:07;;;;;;;14.73;9.17;;;7.90;90.30;;;;;;4974565;28;20067;-79
2023/10/18 00:32:34;;;;;;;14.13;9.20;;;8.00;90.40;;;;;;4974310;28;20118;-79
2023/10/18 00:35:01;;;;;;;13.43;8.37;;;8.00;90.40;;;;;;4974688;28;20045;-79
2023/10/18 00:37:27;;;;;;;14.80;9.20;;;7.90;90.50;;;;;;4975286;28;20517;-78
2023/10/18 00:39:52;;;;;;;14.93;9.23;;;7.90;90.50;;;;;;4974731;28;20026;-79
2023/10/18 00:42:25;;;;;;;14.50;9.07;;;7.90;90.60;;;;;;4974655;28;20132;-79
2023/10/18 00:44:55;;;;;;;13.13;9.03;;;7.90;90.60;;;;;;4973882;28;20031;-79
2023/10/18 00:47:24;;;;;;;13.90;8.63;;;7.80;90.60;;;;;;4974138;28;20292;-78
2023/10/18 00:49:52;;;;;;;17.10;10.10;;;7.80;90.60;;;;;;4974285;28;20038;-79
2023/10/18 00:52:19;;;;;;;17.27;9.77;;;7.80;90.70;;;;;;4974906;28;20058;-79
2023/10/18 00:54:46;;;;;;;14.83;9.13;;;7.80;90.70;;;;;;4974432;28;20027;-79
2023/10/18 00:57:12;;;;;;;13.17;8.87;;;7.80;90.70;;;;;;4974460;28;20031;-79
2023/10/18 00:59:38;;;;;;;14.83;9.23;;;7.80;90.80;;;;;;4973638;28;20445;-79
2023/10/18 01:02:11;;;;;;;14.83;9.40;;;7.80;90.80;;;;;;4956486;28;20490;-80
2023/10/18 01:04:37;;;;;;;13.30;8.63;;;7.70;90.80;;;;;;4973754;28;20201;-79
2023/10/18 01:07:14;;;;;;;15.40;8.80;;;7.70;90.80;;;;;;4973749;28;20031;-79
2023/10/18 01:09:45;;;;;;;13.73;8.30;;;7.80;90.80;;;;;;4974031;28;20027;-79
2023/10/18 01:12:11;;;;;;;16.47;8.57;;;7.70;90.90;;;;;;4974343;28;20035;-80
2023/10/18 01:14:37;;;;;;;17.40;9.90;;;7.70;90.90;;;;;;4973231;28;20035;-79
2023/10/18 01:17:06;;;;;;;13.43;8.63;;;7.70;90.90;;;;;;4973685;28;20035;-79
2023/10/18 01:19:32;;;;;;;14.07;8.77;;;7.80;91.00;;;;;;4973781;28;20050;-79
2023/10/18 01:21:58;;;;;;;12.37;8.30;;;7.70;91.00;;;;;;4973757;28;20114;-80
2023/10/18 01:24:36;;;;;;;14.93;8.57;;;7.80;91.00;;;;;;4956025;28;20121;-80
2023/10/18 01:27:02;;;;;;;14.63;8.80;;;7.70;91.10;;;;;;4973862;28;20023;-79
2023/10/18 01:29:29;;;;;;;14.33;9.23;;;7.70;91.10;;;;;;4973453;28;20030;-79
2023/10/18 01:31:55;;;;;;;16.33;9.33;;;7.70;91.10;;;;;;4973565;28;20043;-79
2023/10/18 01:34:21;;;;;;;13.93;8.93;;;7.70;91.40;;;;;;4973752;28;20514;-80
2023/10/18 01:36:46;;;;;;;16.10;9.20;;;7.70;91.20;;;;;;4973215;28;20046;-80
2023/10/18 01:39:18;;;;;;;15.37;8.90;;;7.60;91.20;;;;;;4973498;28;20386;-79
2023/10/18 01:41:49;;;;;;;15.00;8.83;;;7.60;91.20;;;;;;4974094;28;20038;-78
2023/10/18 01:44:18;;;;;;;14.50;8.77;;;7.60;91.30;;;;;;4973224;28;20054;-78
2023/10/18 01:46:52;;;;;;;14.37;8.53;;;7.60;91.30;;;;;;4973705;28;20291;-80
2023/10/18 01:49:21;;;;;;;14.90;9.35;;;7.60;91.40;;;;;;4973648;28;20502;-78
2023/10/18 01:51:50;;;;;;;14.03;8.83;;;7.60;91.40;;;;;;4956071;28;20100;-79
2023/10/18 01:54:16;;;;;;;12.97;7.80;;;7.60;91.40;;;;;;4956109;28;20402;-79
2023/10/18 01:56:46;;;;;;;14.47;8.63;;;7.60;91.40;;;;;;4974123;28;20054;-80
2023/10/18 01:59:17;;;;;;;14.03;8.80;;;7.60;91.40;;;;;;4977072;28;20035;-79
2023/10/18 02:01:56;;;;;;;17.40;8.77;;;7.60;91.50;;;;;;4977316;28;20043;-79
2023/10/18 02:04:26;;;;;;;15.60;9.13;;;7.60;91.50;;;;;;4976955;28;20039;-79
2023/10/18 02:07:06;;;;;;;14.93;8.83;;;7.50;91.50;;;;;;4977229;28;20078;-79
2023/10/18 02:09:36;;;;;;;12.47;8.50;;;7.60;91.50;;;;;;4959257;28;20035;-79
2023/10/18 02:12:06;;;;;;;13.83;8.70;;;7.60;91.50;;;;;;4959311;28;20039;-79
2023/10/18 02:14:33;;;;;;;12.17;8.70;;;7.50;91.60;;;;;;4976616;28;20455;-78
2023/10/18 02:16:59;;;;;;;13.83;8.10;;;7.50;91.60;;;;;;4977072;28;20097;-79
2023/10/18 02:19:27;;;;;;;15.47;9.43;;;7.60;91.90;;;;;;4959757;28;20046;-79
2023/10/18 02:21:54;;;;;;;14.10;8.57;;;7.50;91.60;;;;;;4959443;28;20035;-79
2023/10/18 02:24:20;;;;;;;15.20;9.40;;;7.50;91.70;;;;;;4976750;28;20047;-78
2023/10/18 02:26:54;;;;;;;15.80;9.70;;;7.40;91.70;;;;;;4959364;28;20090;-79
2023/10/18 02:29:22;;;;;;;15.80;9.00;;;7.40;91.70;;;;;;4959549;28;20086;-79
2023/10/18 02:31:49;;;;;;;15.10;9.40;;;7.40;91.80;;;;;;4976461;28;20063;-79
2023/10/18 02:34:15;;;;;;;15.00;9.23;;;7.40;91.80;;;;;;4976727;28;20031;-79
2023/10/18 02:36:47;;;;;;;18.43;10.07;;;7.50;91.90;;;;;;4959149;28;20442;-79
2023/10/18 02:39:30;;;;;;;14.67;8.57;;;7.40;91.90;;;;;;4959073;28;20031;-79
2023/10/18 02:41:58;;;;;;;16.37;9.83;;;7.40;91.90;;;;;;4976300;28;20497;-79
2023/10/18 02:44:25;;;;;;;14.20;9.03;;;7.40;91.90;;;;;;4976582;28;20494;-79
2023/10/18 02:46:55;;;;;;;14.20;8.63;;;7.40;91.90;;;;;;4976526;28;20035;-80
2023/10/18 02:49:23;;;;;;;20.47;10.00;;;7.40;92.00;;;;;;4976875;28;20073;-79
2023/10/18 02:51:50;;;;;;;14.93;9.47;;;7.40;92.00;;;;;;4959439;28;20538;-79
2023/10/18 02:54:16;;;;;;;17.13;9.60;;;7.30;92.00;;;;;;4959417;28;20089;-79
2023/10/18 02:56:50;;;;;;;16.57;8.97;;;7.30;92.00;;;;;;4958927;28;20062;-79
2023/10/18 02:59:21;;;;;;;15.65;9.52;;;7.40;92.10;;;;;;4959247;28;20077;-79
2023/10/18 03:01:49;;;;;;;14.73;9.33;;;7.30;92.10;;;;;;4976384;28;20039;-78
2023/10/18 03:04:15;;;;;;;15.20;9.73;;;7.30;92.10;;;;;;4959174;28;20098;-79
2023/10/18 03:06:47;;;;;;;17.57;10.57;;;7.30;92.20;;;;;;4975980;28;20063;-80
2023/10/18 03:11:58;;;;;;;16.57;10.03;;;7.20;92.30;;;;;;4976176;28;20050;-79
2023/10/18 03:14:41;;;;;;;16.27;10.27;;;7.20;92.40;;;;;;4958442;28;20031;-78
2023/10/18 03:17:21;;;;;;;16.23;10.23;;;7.20;92.40;;;;;;4958551;28;20031;-79
2023/10/18 03:19:51;;;;;;;16.53;10.43;;;7.20;92.40;;;;;;4976186;28;20035;-78
2023/10/18 03:22:21;;;;;;;16.73;11.13;;;7.20;92.40;;;;;;4958828;28;20038;-77
2023/10/18 03:24:50;;;;;;;17.57;10.00;;;7.20;92.50;;;;;;4958116;28;20133;-78
2023/10/18 03:27:16;;;;;;;17.37;10.33;;;7.20;92.50;;;;;;4975719;28;20114;-78
2023/10/18 03:29:43;;;;;;;16.03;9.90;;;7.10;92.50;;;;;;4958164;28;20118;-78
2023/10/18 03:32:14;;;;;;;16.67;10.67;;;7.10;92.50;;;;;;4975823;28;20106;-79
2023/10/18 03:34:41;;;;;;;16.90;9.87;;;7.20;92.60;;;;;;4976196;28;20030;-79
2023/10/18 03:37:20;;;;;;;17.23;10.57;;;7.10;92.60;;;;;;4975950;28;20089;-79
2023/10/18 03:39:52;;;;;;;18.03;10.67;;;7.20;92.60;;;;;;4975573;28;20031;-79
2023/10/18 03:42:33;;;;;;;18.13;10.37;;;7.10;92.60;;;;;;4975497;28;20031;-79
2023/10/18 03:45:13;;;;;;;18.17;10.00;;;7.10;92.60;;;;;;4975429;28;20035;-79
2023/10/18 03:47:39;;;;;;;17.73;10.50;;;7.10;92.70;;;;;;4957980;28;20034;-79
2023/10/18 03:50:15;;;;;;;16.60;10.73;;;7.10;92.70;;;;;;4975499;28;20058;-79
2023/10/18 03:52:41;;;;;;;17.57;10.83;;;7.10;92.70;;;;;;4975393;28;20046;-79
2023/10/18 03:55:16;;;;;;;18.67;11.10;;;7.10;92.80;;;;;;4957147;28;20058;-79
2023/10/18 03:57:42;;;;;;;17.93;9.53;;;7.10;92.80;;;;;;4958097;28;20059;-78
2023/10/18 04:02:56;;;;;;;18.67;11.03;;;7.10;92.80;;;;;;4961239;28;20035;-78
2023/10/18 04:05:44;;;;;;;16.70;10.27;;;7.10;92.90;;;;;;4938127;29;20080;-80
2023/10/18 04:08:13;;;;;;;20.23;10.40;;;7.10;93.00;;;;;;4954630;29;20054;-78
2023/10/18 04:10:40;;;;;;;17.70;9.93;;;7.00;93.00;;;;;;4955337;29;20499;-79
2023/10/18 04:13:11;;;;;;;16.77;10.33;;;7.10;92.90;;;;;;4955726;29;20039;-79
2023/10/18 04:15:39;;;;;;;17.50;10.33;;;7.10;93.00;;;;;;4938354;29;20459;-79
2023/10/18 04:20:34;;;;;;;18.60;10.83;;;7.10;93.10;;;;;;4955093;28;20086;-79
2023/10/18 04:23:12;;;;;;;18.20;10.10;;;7.20;93.10;;;;;;4954901;29;20494;-80
2023/10/18 04:25:38;;;;;;;19.17;11.67;;;7.10;93.10;;;;;;4938111;29;20031;-80
2023/10/18 04:28:04;;;;;;;17.80;10.60;;;7.00;93.10;;;;;;4955305;29;20081;-79
2023/10/18 04:30:31;;;;;;;16.27;10.00;;;7.00;93.10;;;;;;4938054;29;20046;-80
2023/10/18 04:33:00;;;;;;;17.27;9.67;;;7.00;93.20;;;;;;4938088;29;20043;-80
2023/10/18 04:35:32;;;;;;;16.23;9.70;;;7.10;93.20;;;;;;4938250;29;20038;-80
2023/10/18 04:37:58;;;;;;;16.47;10.13;;;7.00;93.20;;;;;;4955156;29;20440;-80
2023/10/18 04:40:28;;;;;;;17.73;10.13;;;7.00;93.20;;;;;;4955042;29;20430;-80
2023/10/18 04:42:57;;;;;;;17.07;10.33;;;7.00;93.30;;;;;;4954657;29;20059;-80
2023/10/18 04:45:24;;;;;;;15.97;9.80;;;7.00;93.30;;;;;;4937497;29;20090;-79
2023/10/18 04:47:57;;;;;;;16.23;10.53;;;6.90;93.20;;;;;;4954804;29;20102;-79
2023/10/18 04:50:32;;;;;;;16.70;9.90;;;7.00;93.30;;;;;;4937316;29;20040;-79
2023/10/18 04:53:09;;;;;;;15.00;9.50;;;7.00;93.30;;;;;;4954479;29;20038;-80
2023/10/18 04:55:41;;;;;;;16.17;9.10;;;7.00;93.30;;;;;;4955366;28;20030;-79
2023/10/18 04:58:07;;;;;;;17.27;10.13;;;7.00;93.30;;;;;;4963760;28;20624;-80
2023/10/18 05:00:50;;;;;;;16.67;9.67;;;7.00;93.40;;;;;;4967319;28;20156;-79
2023/10/18 05:03:17;;;;;;;16.83;8.70;;;7.00;93.40;;;;;;4955862;28;20030;-80
2023/10/18 05:05:52;;;;;;;13.83;8.67;;;7.00;93.40;;;;;;4973133;28;20524;-80
2023/10/18 05:08:18;;;;;;;14.90;8.87;;;7.00;93.40;;;;;;4973864;28;20162;-79
2023/10/18 05:10:46;;;;;;;18.60;9.63;;;7.00;93.40;;;;;;4973684;28;20404;-79
2023/10/18 05:13:29;;;;;;;13.73;8.30;;;7.00;93.50;;;;;;4973571;28;20042;-80
2023/10/18 05:16:04;;;;;;;14.73;9.73;;;7.00;93.50;;;;;;4973488;28;20584;-80
2023/10/18 05:18:30;;;;;;;15.40;8.97;;;7.00;93.50;;;;;;4973860;28;20038;-79
2023/10/18 05:20:58;;;;;;;14.37;8.83;;;7.00;93.40;;;;;;4973756;28;20063;-80
2023/10/18 05:23:27;;;;;;;17.37;9.30;;;7.00;93.40;;;;;;4973930;28;20038;-79
2023/10/18 05:26:39;;;;;;;17.93;8.60;;;7.00;93.40;;;;;;4973685;28;20042;-80
2023/10/18 05:29:01;;;;;;;13.87;8.87;;;7.00;93.40;;;;;;4960098;28;20035;-80
2023/10/18 05:34:47;;;;;;;13.77;7.70;;;7.00;93.30;;;;;;4981196;28;20110;-80
2023/10/18 05:41:51;;;;;;;16.63;10.00;;;7.10;93.40;;;;;;4974662;28;20034;-79
2023/10/18 05:44:17;;;;;;;15.60;10.20;;;7.10;93.30;;;;;;4952276;28;20043;-80
2023/10/18 05:46:46;;;;;;;15.60;8.80;;;7.10;93.30;;;;;;4969392;28;20075;-80
2023/10/18 05:49:23;;;;;;;16.73;9.97;;;7.10;93.60;;;;;;4950987;28;20031;-80
2023/10/18 05:51:52;;;;;;;17.13;9.10;;;7.10;93.30;;;;;;4965908;28;20027;-80
2023/10/18 05:54:22;;;;;;;14.90;8.93;;;7.10;93.40;;;;;;4965636;28;20098;-80
2023/10/18 05:56:52;;;;;;;14.47;9.40;;;7.00;93.30;;;;;;4970136;28;20053;-79
2023/10/18 06:01:48;;;;;;;14.47;10.20;;;7.00;93.40;;;;;;4969905;28;20035;-81
2023/10/18 06:04:23;;;;;;;16.73;9.33;;;7.00;93.40;;;;;;4959752;28;20035;-80
2023/10/18 06:06:59;;;;;;;15.70;9.13;;;7.00;93.40;;;;;;4980251;28;20026;-80
2023/10/18 06:09:26;;;;;;;15.60;8.97;;;7.00;93.40;;;;;;4980179;28;20031;-80
2023/10/18 06:11:54;;;;;;;17.97;9.63;;;7.00;93.40;;;;;;4979679;28;20054;-80
2023/10/18 06:14:20;;;;;;;18.37;10.43;;;7.00;93.40;;;;;;4958083;28;20045;-80
2023/10/18 06:16:51;;;;;;;16.20;9.77;;;7.10;93.40;;;;;;4979380;28;20035;-80
2023/10/18 06:19:22;;;;;;;15.43;9.13;;;7.10;93.30;;;;;;4961904;28;20454;-80
2023/10/18 06:22:08;;;;;;;15.30;9.53;;;7.00;93.30;;;;;;4974746;28;20117;-80
2023/10/18 06:24:33;;;;;;;16.07;9.17;;;7.00;93.30;;;;;;4954555;28;20429;-80
2023/10/18 06:26:59;;;;;;;15.77;8.37;;;7.00;93.30;;;;;;4968863;28;20027;-80
2023/10/18 06:29:25;;;;;;;20.03;9.60;;;7.00;93.30;;;;;;4970673;28;20023;-79
2023/10/18 06:31:53;;;;;;;16.97;9.37;;;7.10;93.30;;;;;;4969349;28;20043;-79
2023/10/18 06:34:18;;;;;;;15.50;9.17;;;7.10;93.40;;;;;;4968780;28;20023;-78
2023/10/18 06:36:47;;;;;;;16.73;9.77;;;7.10;93.30;;;;;;4970705;28;20034;-79
2023/10/18 06:39:35;;;;;;;15.47;9.27;;;7.10;93.30;;;;;;4971803;28;20058;-82
2023/10/18 06:41:59;;;;;;;16.10;8.73;;;7.10;93.40;;;;;;4976004;28;20082;-78
2023/10/18 06:44:30;;;;;;;17.87;9.73;;;7.10;93.40;;;;;;4976529;28;20487;-77
2023/10/18 06:46:57;;;;;;;14.87;9.57;;;7.10;93.40;;;;;;4975909;28;20082;-77
2023/10/18 06:49:25;;;;;;;17.20;10.17;;;7.20;93.40;;;;;;4976223;28;20491;-78
2023/10/18 06:51:52;;;;;;;17.40;10.27;;;7.20;93.40;;;;;;4976278;28;20034;-77
2023/10/18 06:54:30;;;;;;;20.60;10.30;;;7.20;93.40;;;;;;4958945;28;20027;-79
2023/10/18 06:57:15;;;;;;;17.17;10.60;;;7.20;93.40;;;;;;4958643;28;20502;-76
2023/10/18 06:59:48;;;;;;;15.20;8.50;;;7.20;93.40;;;;;;4976219;28;20027;-77
2023/10/18 07:02:14;;;;;;;21.33;9.97;;;7.20;93.40;;;;;;4976048;28;20035;-77
2023/10/18 07:04:51;;;;;;;16.40;9.33;;;7.30;93.40;;;;;;4975868;28;20070;-77
2023/10/18 07:07:20;;;;;;;17.33;10.27;;;7.30;93.40;;;;;;4976001;28;20037;-77
2023/10/18 07:09:47;;;;;;;15.50;9.90;;;7.30;93.40;;;;;;4975766;28;20471;-78
2023/10/18 07:12:13;;;;;;;13.77;8.93;;;7.30;93.40;;;;;;4958507;28;20491;-78
2023/10/18 07:14:39;;;;;;;15.37;9.07;;;7.40;93.40;;;;;;4975521;28;20038;-78
2023/10/18 07:17:05;;;;;;;12.80;8.70;;;7.30;93.40;;;;;;4975644;28;20035;-78
2023/10/18 07:19:35;;;;;;;14.00;9.03;;;7.40;93.40;;;;;;4976142;28;20086;-79
2023/10/18 07:22:07;;;;;;;16.90;8.67;;;7.50;93.40;;;;;;4975806;28;20037;-77
2023/10/18 07:24:39;;;;;;;13.20;8.93;;;7.60;93.40;;;;;;4975694;28;20062;-78
2023/10/18 07:27:09;;;;;;;12.10;7.73;;;7.70;93.40;;;;;;4976048;28;20027;-78
2023/10/18 07:29:36;;;;;;;12.23;7.90;;;7.70;93.40;;;;;;4975800;28;20022;-78
2023/10/18 07:32:06;;;;;;;14.20;8.47;;;7.70;93.40;;;;;;4975018;28;20050;-78
2023/10/18 07:34:33;;;;;;;13.90;8.03;;;7.80;93.40;;;;;;4975665;28;20118;-77
2023/10/18 07:37:16;;;;;;;16.13;8.97;;;7.80;93.30;;;;;;4966878;28;20035;-78
2023/10/18 07:39:44;;;;;;;14.30;8.47;;;7.90;93.20;;;;;;4956370;29;20039;-78
2023/10/18 07:42:12;;;;;;;14.37;8.90;;;7.90;93.10;;;;;;4958706;28;20042;-77
2023/10/18 07:44:41;;;;;;;15.47;8.33;;;8.00;93.10;;;;;;4960967;28;20066;-78
2023/10/18 07:47:09;;;;;;;13.13;8.03;;;8.00;93.00;;;;;;4955558;29;20448;-77
2023/10/18 07:49:34;;;;;;;14.97;8.30;;;8.10;92.90;;;;;;4962491;28;20115;-78
2023/10/18 07:52:00;;;;;;;13.00;7.93;;;8.10;92.90;;;;;;4963260;28;20483;-78
2023/10/18 07:54:26;;;;;;;13.37;8.13;;;8.20;92.80;;;;;;4966269;28;20038;-77
2023/10/18 07:56:54;;;;;;;14.70;7.80;;;8.20;92.70;;;;;;4961251;28;20035;-78
2023/10/18 07:59:28;;;;;;;13.03;7.90;;;8.30;92.60;;;;;;4938334;29;20099;-77
2023/10/18 08:02:12;;;;;;;15.35;7.30;;;8.30;92.60;;;;;;4955945;29;20400;-77
2023/10/18 08:04:40;;;;;;;11.80;7.07;;;8.30;92.60;;;;;;4955789;29;20504;-77
2023/10/18 08:07:15;;;;;;;12.27;7.63;;;8.40;92.50;;;;;;4955781;29;20056;-78
2023/10/18 08:09:44;;;;;;;10.47;7.10;;;8.40;92.70;;;;;;4971786;28;20041;-77
2023/10/18 08:12:33;;;;;;;15.20;8.03;;;8.50;92.30;;;;;;4948424;29;20099;-77
2023/10/18 08:14:57;;;;;;;12.43;7.07;;;8.60;92.30;;;;;;4954075;29;20040;-77
2023/10/18 08:22:53;;;;;;;15.00;7.30;;;8.70;92.10;;;;;;4955435;29;20031;-77
2023/10/18 08:25:23;;;;;;;12.53;7.73;;;8.80;92.00;;;;;;4955164;29;20433;-77
2023/10/18 08:27:50;;;;;;;11.93;7.43;;;8.80;91.90;;;;;;4955059;29;20031;-77
2023/10/18 08:30:35;;;;;;;11.40;6.70;;;8.80;91.90;;;;;;4954970;29;20068;-77
2023/10/18 08:33:05;;;;;;;11.83;7.10;;;8.90;91.90;;;;;;4955186;29;20055;-77
2023/10/18 08:35:32;;;;;;;14.57;7.00;;;8.90;91.80;;;;;;4954908;29;20168;-77
2023/10/18 08:38:06;;;;;;;12.40;7.47;;;9.00;91.80;;;;;;4954935;29;20050;-78
2023/10/18 08:40:37;;;;;;;12.67;6.60;;;9.10;91.70;;;;;;4954727;29;20527;-77
2023/10/18 08:43:23;;;;;;;11.07;7.03;;;9.10;91.70;;;;;;4937447;29;20110;-77
2023/10/18 08:45:50;;;;;;;13.57;8.00;;;9.10;91.50;;;;;;4937684;29;20031;-77
2023/10/18 08:48:17;;;;;;;12.53;7.87;;;9.20;91.50;;;;;;4955211;29;20102;-77
2023/10/18 08:50:46;;;;;;;12.13;7.03;;;9.30;91.40;;;;;;4954901;29;20035;-77
2023/10/18 08:53:15;;;;;;;12.30;7.20;;;9.40;91.30;;;;;;4955133;29;20058;-77
2023/10/18 08:55:51;;;;;;;9.90;5.97;;;9.40;91.30;;;;;;4954780;29;20043;-77
2023/10/18 08:58:18;;;;;;;10.73;6.63;;;9.50;91.30;;;;;;4954456;29;20283;-78
2023/10/18 09:03:29;;;;;;;9.93;6.27;;;9.70;91.10;;;;;;4954627;29;20593;-77
2023/10/18 09:06:05;;;;;;;10.03;6.00;;;9.70;91.10;;;;;;4954458;28;20032;-77
2023/10/18 09:08:42;;;;;;;9.77;5.87;;;9.80;91.10;;;;;;4954755;29;20035;-78
2023/10/18 09:11:27;;;;;;;9.83;6.37;;;10.00;91.00;;;;;;4954517;29;20049;-79
2023/10/18 09:14:08;;;;;;;10.30;6.00;;;10.10;90.90;;;;;;4937205;29;20035;-80
2023/10/18 09:16:41;;;;;;;9.80;6.67;;;10.20;90.80;;;;;;4937645;29;20038;-77
2023/10/18 09:19:09;;;;;;;10.70;6.55;;;10.30;90.70;;;;;;4954778;29;20035;-76
2023/10/18 09:21:56;;;;;;;11.60;5.60;;;10.40;90.60;;;;;;4954430;29;20468;-77
2023/10/18 09:24:30;;;;;;;12.05;5.70;;;10.50;90.50;;;;;;4954456;29;20058;-77
2023/10/18 09:26:58;;;;;;;7.85;4.63;;;10.60;90.40;;;;;;4954259;29;20056;-77
2023/10/18 09:29:26;;;;;;;8.18;5.30;;;10.80;90.50;;;;;;4940581;28;20352;-77
2023/10/18 09:31:54;;;;;;;8.85;4.25;;;11.00;90.40;;;;;;4964408;28;20509;-78
2023/10/18 09:34:23;;;;;;;8.13;4.88;;;11.20;90.20;;;;;;4964259;28;20114;-77
2023/10/18 09:36:53;;;;;;;8.38;4.78;;;11.40;90.00;;;;;;4963970;28;20510;-77
2023/10/18 09:39:21;;;;;;;9.82;4.60;;;11.60;89.70;;;;;;4965065;28;20041;-78
2023/10/18 09:41:47;;;;;;;9.07;5.00;;;11.80;89.30;;;;;;4964186;28;20125;-78
2023/10/18 09:44:13;;;;;;;8.60;4.22;;;12.00;88.80;;;;;;4976953;28;20042;-78
2023/10/18 09:46:39;;;;;;;7.07;4.32;;;12.20;88.40;;;;;;4993063;28;20045;-77
2023/10/18 09:49:09;;;;;;;7.00;3.70;;;12.40;87.80;;;;;;4992921;28;20031;-78
2023/10/18 09:51:42;;;;;;;8.25;4.32;;;12.40;87.20;;;;;;4992891;28;20387;-77
2023/10/18 09:54:12;;;;;;;5.78;3.25;;;12.50;86.50;;;;;;4992732;28;20073;-77
2023/10/18 09:56:40;;;;;;;7.80;4.25;;;12.60;86.20;;;;;;4992464;28;20026;-78
2023/10/18 09:59:16;;;;;;;6.53;3.80;;;12.80;86.00;;;;;;4975391;28;20054;-78
2023/10/18 10:04:13;;;;;;;6.90;3.30;;;13.30;86.00;;;;;;4992874;28;20045;-78
2023/10/18 10:07:27;;;;;;;7.03;3.38;;;13.70;86.10;;;;;;4992548;28;20471;-78
2023/10/18 10:09:46;;;;;;;6.35;3.20;;;14.00;85.80;;;;;;4992566;28;20027;-78
2023/10/18 10:12:27;;;;;;;8.68;3.10;;;14.40;84.40;;;;;;4975118;28;20046;-78
2023/10/18 10:14:58;;;;;;;5.75;2.55;;;14.60;83.20;;;;;;4970479;28;20035;-78
2023/10/18 10:17:28;;;;;;;5.55;3.33;;;14.80;82.60;;;;;;4969512;28;20027;-78
2023/10/18 10:19:58;;;;;;;4.80;2.55;;;15.10;82.10;;;;;;4928795;29;20450;-79
2023/10/18 10:22:26;;;;;;;6.88;2.97;;;15.30;81.10;;;;;;4945417;29;20040;-77
2023/10/18 10:25:00;;;;;;;5.85;2.72;;;15.40;80.40;;;;;;4944762;29;20075;-77
2023/10/18 10:27:27;;;;;;;6.47;3.08;;;15.70;80.10;;;;;;4944464;29;20039;-78
2023/10/18 10:29:56;;;;;;;5.55;3.20;;;16.00;78.90;;;;;;4946333;29;20055;-78
2023/10/18 10:32:24;;;;;;;4.47;2.53;;;16.30;78.20;;;;;;4945022;29;20067;-77
2023/10/18 10:35:10;;;;;;;4.80;2.78;;;16.70;77.90;;;;;;4937576;29;20070;-77
2023/10/18 10:37:47;;;;;;;6.10;2.05;;;17.20;77.40;;;;;;4936822;29;20135;-77
2023/10/18 10:43:02;;;;;;;4.75;2.25;;;17.90;74.30;;;;;;4935659;29;20032;-77
2023/10/18 10:51:12;;;;;;;5.15;2.00;;;18.60;70.50;;;;;;4957157;29;20034;-77
2023/10/18 10:53:48;;;;;;;4.13;1.88;;;19.10;69.00;;;;;;4955546;29;20039;-79
2023/10/18 10:56:19;;;;;;;3.90;1.75;;;19.50;69.50;;;;;;4956906;29;20515;-80
2023/10/18 10:58:55;;;;;;;3.85;1.90;;;19.90;67.70;;;;;;4957268;29;20443;-79
2023/10/18 11:01:57;;;;;;;3.90;2.17;;;20.20;66.40;;;;;;4957243;29;20043;-78
2023/10/18 11:04:28;;;;;;;3.70;1.88;;;20.70;64.20;;;;;;4952973;29;20058;-79
2023/10/18 11:07:00;;;;;;;3.47;1.48;;;21.00;64.30;;;;;;4956656;28;20111;-78
2023/10/18 11:09:34;;;;;;;3.70;1.98;;;21.30;62.70;;;;;;4971574;28;20386;-79
2023/10/18 11:12:04;;;;;;;5.30;1.95;;;21.40;60.70;;;;;;4974776;28;20031;-79
2023/10/18 11:14:35;;;;;;;3.72;1.80;;;21.60;60.50;;;;;;4975967;28;20426;-78
2023/10/18 11:17:17;;;;;;;5.15;2.10;;;21.80;59.60;;;;;;4958530;28;20033;-79
2023/10/18 11:19:59;;;;;;;3.72;1.88;;;22.10;58.80;;;;;;4975694;28;20031;-78
2023/10/18 11:22:29;;;;;;;4.68;2.30;;;22.20;57.80;;;;;;4976079;28;20079;-79
2023/10/18 11:24:56;;;;;;;6.65;1.88;;;22.30;56.20;;;;;;4976298;28;20122;-79
2023/10/18 11:27:34;;;;;;;3.45;1.88;;;22.30;55.70;;;;;;4975866;28;20114;-77
2023/10/18 11:30:15;;;;;;;4.03;1.80;;;22.30;55.10;;;;;;4957888;28;20030;-77
2023/10/18 11:32:43;;;;;;;3.10;1.60;;;22.30;54.80;;;;;;4975737;28;20039;-78
2023/10/18 11:35:09;;;;;;;3.95;2.15;;;22.20;54.30;;;;;;4975731;28;20103;-78
2023/10/18 11:37:37;;;;;;;6.38;1.77;;;22.20;53.80;;;;;;4975372;28;20471;-77
2023/10/18 11:40:20;;;;;;;5.43;1.90;;;22.20;53.60;;;;;;4975731;28;20039;-77
2023/10/18 11:43:04;;;;;;;4.95;2.22;;;22.30;53.20;;;;;;4975468;28;20515;-77
2023/10/18 11:45:30;;;;;;;;;;;22.40;53.10;;;;;;4975884;28;20031;-78
2023/10/18 11:47:55;;;;;;;2.67;1.23;;;22.70;53.40;;;;;;4975671;28;19906;-77
2023/10/18 11:50:23;;;;;;;3.60;1.80;;;23.00;53.80;;;;;;4975498;28;20422;-77
2023/10/18 11:52:51;;;;;;;3.85;1.52;;;23.30;53.40;;;;;;4957447;28;20046;-77
2023/10/18 11:55:17;;;;;;;4.07;2.25;;;23.50;52.50;;;;;;4975466;28;20043;-77
2023/10/18 11:57:46;;;;;;;5.03;1.98;;;23.40;50.90;;;;;;4975427;28;20110;-77
2023/10/18 12:00:27;;;;;;;5.70;2.05;;;23.40;50.70;;;;;;4958102;28;20030;-77
2023/10/18 12:02:56;;;;;;;5.28;1.77;;;23.20;50.60;;;;;;4964118;28;20377;-77
2023/10/18 12:05:27;;;;;;;4.78;1.85;;;23.00;50.50;;;;;;4956094;28;20426;-77
2023/10/18 12:07:56;;;;;;;3.90;2.03;;;23.00;50.60;;;;;;4955023;29;20054;-77
2023/10/18 12:10:34;;;;;;;6.75;2.13;;;23.10;50.50;;;;;;4955555;29;20027;-77
2023/10/18 12:13:06;;;;;;;4.10;1.80;;;23.30;50.00;;;;;;4955306;29;20499;-77
2023/10/18 12:15:33;;;;;;;4.18;1.85;;;23.50;49.90;;;;;;4955657;29;20369;-78
2023/10/18 12:18:05;;;;;;;3.35;1.35;;;23.70;49.50;;;;;;4955335;29;20049;-78
2023/10/18 12:20:42;;;;;;;5.47;1.90;;;23.80;49.50;;;;;;4955212;29;20034;-78
2023/10/18 12:23:21;;;;;;;4.18;1.65;;;23.90;49.40;;;;;;4955329;29;20031;-78
2023/10/18 12:25:47;;;;;;;4.65;1.90;;;24.10;49.30;;;;;;4955378;29;20035;-78
2023/10/18 12:28:27;;;;;;;5.15;2.05;;;24.40;48.90;;;;;;4955407;29;20040;-78
2023/10/18 12:30:55;;;;;;;3.50;1.67;;;24.60;48.50;;;;;;4955137;29;20046;-77
2023/10/18 12:33:27;;;;;;;2.88;1.55;;;24.80;48.30;;;;;;4955233;29;20051;-78
2023/10/18 12:35:59;;;;;;;3.55;1.80;;;25.10;48.10;;;;;;4955266;29;20042;-78
2023/10/18 12:38:32;;;;;;;3.67;1.75;;;25.30;47.50;;;;;;4955513;29;20403;-79
2023/10/18 12:40:59;;;;;;;3.22;1.50;;;25.30;47.00;;;;;;4955309;28;20081;-79
2023/10/18 12:43:44;;;;;;;3.80;1.83;;;25.30;46.90;;;;;;4955245;29;20051;-79
2023/10/18 12:46:15;;;;;;;5.03;1.85;;;25.30;46.20;;;;;;4955497;29;20031;-79
2023/10/18 12:48:43;;;;;;;5.00;1.65;;;25.30;46.60;;;;;;4955154;29;20066;-79
2023/10/18 12:51:12;;;;;;;3.90;1.60;;;25.50;46.40;;;;;;4954601;29;20035;-79
2023/10/18 12:53:39;;;;;;;4.00;1.73;;;25.70;46.20;;;;;;4937856;29;20031;-79
2023/10/18 12:58:57;;;;;;;3.90;1.45;;;25.90;45.80;;;;;;4955219;29;20098;-78
2023/10/18 13:01:30;;;;;;;3.45;1.58;;;25.90;45.50;;;;;;4937641;29;20653;-79
2023/10/18 13:03:59;;;;;;;3.92;2.05;;;25.80;45.30;;;;;;4937634;29;20047;-78
2023/10/18 13:06:35;;;;;;;3.22;1.20;;;25.70;44.90;;;;;;4954816;29;20118;-80
2023/10/18 13:09:15;;;;;;;4.28;1.63;;;25.30;44.90;;;;;;4955044;29;20063;-78
2023/10/18 13:14:11;;;;;;;2.72;1.23;;;24.60;45.30;;;;;;4954945;29;20098;-78
2023/10/18 13:16:37;;;;;;;2.80;1.30;;;24.50;45.70;;;;;;4937150;29;20107;-77
2023/10/18 13:19:06;;;;;;;4.78;1.75;;;24.50;45.60;;;;;;4954400;29;20475;-77
2023/10/18 13:21:32;;;;;;;4.88;1.95;;;24.40;45.80;;;;;;4937538;29;20484;-77
2023/10/18 13:24:16;;;;;;;4.07;2.25;;;24.40;45.60;;;;;;4954780;29;20043;-77
2023/10/18 13:26:46;;;;;;;4.78;2.17;;;24.30;45.50;;;;;;4954694;29;20110;-77
2023/10/18 13:31:49;;;;;;;6.07;2.47;;;24.20;45.80;;;;;;4954575;29;20110;-78
2023/10/18 13:34:21;;;;;;;5.32;1.85;;;24.20;45.80;;;;;;4954315;29;20044;-77
2023/10/18 13:36:47;;;;;;;3.90;2.03;;;24.10;45.80;;;;;;4954958;29;20040;-77
2023/10/18 13:39:14;;;;;;;5.35;2.00;;;24.00;45.80;;;;;;4954559;29;20492;-77
2023/10/18 13:41:41;;;;;;;4.88;1.70;;;23.80;45.80;;;;;;4954494;29;20066;-78
2023/10/18 13:44:10;;;;;;;7.20;2.38;;;23.70;46.00;;;;;;4954342;29;20389;-77
2023/10/18 13:46:36;;;;;;;5.30;1.80;;;23.60;46.10;;;;;;4954949;29;20031;-78
2023/10/18 13:49:03;;;;;;;6.03;1.60;;;23.50;46.30;;;;;;4953304;29;20391;-77